METAR AND TAF INFORMATION
METAR FOR EHBK
ADDS - METARS form results

(1434 UTC 04 April 2020)
Data provider http://aviationweather.gov/metar/data/
 
METAR text: EHBK 041425Z AUTO 12005KT 060V170 9999 NCD 14/01 Q1022 NOSIG
Conditions at: EHBK (ZUID-LIMBURG/BEE, NL) observed 1425 UTC 04 April 2020
Temperature: 14.0°C (57°F)
Dewpoint: 1.0°C (34°F) [RH = 41%]
Pressure (altimeter): 30.18 inches Hg (1022.0 mb)
Winds: from the ESE (120 degrees) at 6 MPH (5 knots; 2.6 m/s)
Visibility: 6 or more miles (10+ km)
Ceiling: at least 12,000 feet AGL
Clouds: sky clear below 12,000 feet AGL
Weather: no significant weather observed at this time

METAR text: EHBK 041355Z AUTO VRB04KT 9999 NSC 14/00 Q1023 NOSIG
Conditions at: EHBK (ZUID-LIMBURG/BEE, NL) observed 1355 UTC 04 April 2020
Temperature: 14.0°C (57°F)
Dewpoint: 0.0°C (32°F) [RH = 38%]
Pressure (altimeter): 30.21 inches Hg (1023.0 mb)
Winds: variable direction winds at 5 MPH (4 knots; 2.1 m/s)
Visibility: 6 or more miles (10+ km)
Ceiling: at least 12,000 feet AGL
Clouds: sky clear below 12,000 feet AGL
Weather: no significant weather observed at this time

Forecast for: EHBK (ZUID-LIMBURG/BEE, NL)
Text: TAF EHBK 041100Z 0412/0518 13005KT CAVOK
Forecast period: 1200 UTC 04 April 2020 to 0900 UTC 05 April 2020
Forecast type: FROM: standard forecast or significant change
Winds: from the SE (130 degrees) at 6 MPH (5 knots; 2.6 m/s)
Visibility: 6 or more miles 10+ km)
Ceiling: unknown
Clouds: missing
Weather: NSW  (no significant weather)
Text: BECMG 0509/0512 16011KT
Forecast period: 0900 to 1800 UTC 05 April 2020
Forecast type: BECOMING: Conditions expected to become as follows by 1200 UTC 05 April 2020
Winds: from the SSE (160 degrees) at 13 MPH (11 knots; 5.7 m/s)
Visibility: 6 or more miles 10+ km)
Ceiling: unknown
Clouds: missing
Weather: NSW  (no significant weather)

 AIRPORT MAP

 RUNWAY INFORMATION
Runway 03 Runway length 8202 ft Runway width 148 ft
Runway elevation 365 ft Runway displaced threshold 820 ft Runway heading 33
Runway 21 Runway length 8202 ft Runway width 148 ft
Runway elevation 370 ft Runway displaced threshold 820 ft Runway heading 213

 AIRPORT FREQUENCIES
Type APP Name BEEK APP Frequency 120.2 MHZ
Type ATIS Name ATIS Frequency 124.575 MHZ
Type GND Name BEEK GND Frequency 121.825 MHZ
Type TWR Name BEEK TWR Frequency 119.475 MHZ

 AIRPORT NEAR NAVIGATION AIDS
Type VOR-DME Name Maastricht Frequency 108600 KHZ
Type NDB Name Maastricht Frequency 373 KHZ



Powered by Virtual Airlines Manager [v2.6.2]